createdAt,value
2022-10-09T00:00:18.383Z,1021.54
2022-10-09T00:01:18.374Z,1021.54
2022-10-09T00:02:18.412Z,1021.52
2022-10-09T00:03:18.369Z,1021.51
2022-10-09T00:04:18.363Z,1021.48
2022-10-09T00:05:18.430Z,1021.47
2022-10-09T00:06:18.354Z,1021.49
2022-10-09T00:07:18.351Z,1021.52
2022-10-09T00:08:18.349Z,1021.54
2022-10-09T00:09:18.365Z,1021.53
2022-10-09T00:10:18.345Z,1021.57
2022-10-09T00:11:18.347Z,1021.52
2022-10-09T00:12:18.349Z,1021.51
2022-10-09T00:13:18.337Z,1021.51
2022-10-09T00:14:18.345Z,1021.53
2022-10-09T00:15:18.345Z,1021.51
2022-10-09T00:16:18.394Z,1021.50
2022-10-09T00:17:18.342Z,1021.46
2022-10-09T00:18:18.335Z,1021.54
2022-10-09T00:19:18.325Z,1021.50
2022-10-09T00:20:18.326Z,1021.50
2022-10-09T00:21:18.321Z,1021.54
2022-10-09T00:22:18.311Z,1021.54
2022-10-09T00:23:18.326Z,1021.54
2022-10-09T00:24:18.321Z,1021.56
2022-10-09T00:25:18.344Z,1021.54
2022-10-09T00:26:18.311Z,1021.52
2022-10-09T00:27:18.310Z,1021.49
2022-10-09T00:28:18.410Z,1021.48
2022-10-09T00:29:18.293Z,1021.51
2022-10-09T00:30:18.299Z,1021.51
2022-10-09T00:31:18.358Z,1021.46
2022-10-09T00:32:18.288Z,1021.48
2022-10-09T00:33:18.282Z,1021.49
2022-10-09T00:34:18.282Z,1021.47
2022-10-09T00:35:18.290Z,1021.53
2022-10-09T00:36:18.279Z,1021.48
2022-10-09T00:37:18.275Z,1021.49
2022-10-09T00:38:18.282Z,1021.48
2022-10-09T00:39:18.280Z,1021.47
2022-10-09T00:40:18.273Z,1021.46
2022-10-09T00:41:18.283Z,1021.48
2022-10-09T00:42:18.280Z,1021.43
2022-10-09T00:43:18.282Z,1021.42
2022-10-09T00:44:18.260Z,1021.41
2022-10-09T00:45:18.283Z,1021.43
2022-10-09T00:46:18.297Z,1021.41
2022-10-09T00:47:18.256Z,1021.43
2022-10-09T00:48:18.256Z,1021.42
2022-10-09T00:49:18.259Z,1021.40
2022-10-09T00:50:18.241Z,1021.39
2022-10-09T00:51:18.237Z,1021.41
2022-10-09T00:52:18.238Z,1021.39
2022-10-09T00:53:18.251Z,1021.43
2022-10-09T00:54:18.230Z,1021.43
2022-10-09T00:55:18.234Z,1021.39
2022-10-09T00:56:18.234Z,1021.40
2022-10-09T00:57:18.241Z,1021.37
2022-10-09T00:58:18.228Z,1021.40
2022-10-09T00:59:18.218Z,1021.38
2022-10-09T01:00:18.221Z,1021.38
2022-10-09T01:01:18.306Z,1021.40
2022-10-09T01:02:18.269Z,1021.42
2022-10-09T01:03:18.215Z,1021.47
2022-10-09T01:04:18.221Z,1021.41
2022-10-09T01:05:18.210Z,1021.45
2022-10-09T01:06:18.222Z,1021.43
2022-10-09T01:07:18.202Z,1021.45
2022-10-09T01:08:18.193Z,1021.44
2022-10-09T01:09:18.212Z,1021.43
2022-10-09T01:10:18.189Z,1021.41
2022-10-09T01:11:18.188Z,1021.45
2022-10-09T01:12:18.191Z,1021.47
2022-10-09T01:13:18.202Z,1021.50
2022-10-09T01:14:18.186Z,1021.49
2022-10-09T01:15:18.178Z,1021.50
2022-10-09T01:16:22.879Z,1021.52
2022-10-09T01:17:18.185Z,1021.50
2022-10-09T01:18:18.171Z,1021.45
2022-10-09T01:19:18.171Z,1021.44
2022-10-09T01:20:18.173Z,1021.45
2022-10-09T01:21:18.167Z,1021.43
2022-10-09T01:22:18.161Z,1021.43
2022-10-09T01:23:18.160Z,1021.47
2022-10-09T01:24:18.154Z,1021.47
2022-10-09T01:25:18.161Z,1021.48
2022-10-09T01:26:18.157Z,1021.48
2022-10-09T01:27:18.160Z,1021.48
2022-10-09T01:28:18.191Z,1021.48
2022-10-09T01:29:18.161Z,1021.46
2022-10-09T01:30:18.152Z,1021.47
2022-10-09T01:31:18.372Z,1021.45
2022-10-09T01:32:18.154Z,1021.46
2022-10-09T01:33:18.130Z,1021.46
2022-10-09T01:34:18.124Z,1021.43
2022-10-09T01:35:18.121Z,1021.44
2022-10-09T01:36:18.124Z,1021.40
2022-10-09T01:37:18.126Z,1021.45
2022-10-09T01:38:18.129Z,1021.41
2022-10-09T01:39:18.123Z,1021.37
2022-10-09T01:40:18.120Z,1021.36
2022-10-09T01:41:18.121Z,1021.39
2022-10-09T01:42:18.126Z,1021.39
2022-10-09T01:43:18.101Z,1021.41
2022-10-09T01:44:18.100Z,1021.43
2022-10-09T01:45:18.271Z,1021.39
2022-10-09T01:46:18.155Z,1021.35
2022-10-09T01:47:18.102Z,1021.39
2022-10-09T01:48:18.094Z,1021.41
2022-10-09T01:49:18.090Z,1021.36
2022-10-09T01:50:18.084Z,1021.39
2022-10-09T01:51:18.094Z,1021.37
2022-10-09T01:52:18.092Z,1021.37
2022-10-09T01:53:18.078Z,1021.35
2022-10-09T01:54:18.073Z,1021.31
2022-10-09T01:55:18.066Z,1021.35
2022-10-09T01:56:18.069Z,1021.33
2022-10-09T01:57:18.071Z,1021.29
2022-10-09T01:58:18.072Z,1021.30
2022-10-09T01:59:18.068Z,1021.31
2022-10-09T02:00:18.055Z,1021.26
2022-10-09T02:01:18.253Z,1021.31
2022-10-09T02:02:18.151Z,1021.34
2022-10-09T02:03:18.055Z,1021.29
2022-10-09T02:04:18.047Z,1021.31
2022-10-09T02:05:18.039Z,1021.31
2022-10-09T02:06:18.039Z,1021.27
2022-10-09T02:07:18.034Z,1021.27
2022-10-09T02:08:18.041Z,1021.25
2022-10-09T02:09:18.047Z,1021.25
2022-10-09T02:10:18.024Z,1021.25
2022-10-09T02:11:18.032Z,1021.26
2022-10-09T02:12:18.034Z,1021.31
2022-10-09T02:13:18.031Z,1021.25
2022-10-09T02:14:18.012Z,1021.26
2022-10-09T02:15:18.035Z,1021.28
2022-10-09T02:16:18.110Z,1021.26
2022-10-09T02:17:18.029Z,1021.21
2022-10-09T02:18:18.013Z,1021.28
2022-10-09T02:19:18.016Z,1021.24
2022-10-09T02:20:18.029Z,1021.27
2022-10-09T02:21:18.004Z,1021.28
2022-10-09T02:22:17.999Z,1021.29
2022-10-09T02:23:17.994Z,1021.23
2022-10-09T02:24:18.001Z,1021.23
2022-10-09T02:25:17.983Z,1021.23
2022-10-09T02:26:17.981Z,1021.20
2022-10-09T02:27:17.986Z,1021.18
2022-10-09T02:28:18.026Z,1021.17
2022-10-09T02:29:17.982Z,1021.20
2022-10-09T02:30:17.982Z,1021.19
2022-10-09T02:31:18.024Z,1021.22
2022-10-09T02:32:17.972Z,1021.18
2022-10-09T02:33:17.987Z,1021.14
2022-10-09T02:34:17.962Z,1021.16
2022-10-09T02:35:17.956Z,1021.11
2022-10-09T02:36:17.957Z,1021.10
2022-10-09T02:37:17.952Z,1021.09
2022-10-09T02:38:17.953Z,1021.11
2022-10-09T02:39:17.946Z,1021.14
2022-10-09T02:40:17.948Z,1021.15
2022-10-09T02:41:17.947Z,1021.13
2022-10-09T02:42:17.954Z,1021.09
2022-10-09T02:43:17.948Z,1021.10
2022-10-09T02:44:17.948Z,1021.12
2022-10-09T02:45:17.948Z,1021.18
2022-10-09T02:46:17.987Z,1021.15
2022-10-09T02:47:17.932Z,1021.18
2022-10-09T02:48:17.933Z,1021.16
2022-10-09T02:49:17.941Z,1021.19
2022-10-09T02:50:17.930Z,1021.17
2022-10-09T02:51:17.921Z,1021.16
2022-10-09T02:52:17.915Z,1021.18
2022-10-09T02:53:17.911Z,1021.19
2022-10-09T02:54:17.915Z,1021.19
2022-10-09T02:55:17.936Z,1021.19
2022-10-09T02:56:17.907Z,1021.20
2022-10-09T02:57:17.894Z,1021.21
2022-10-09T02:58:17.889Z,1021.17
2022-10-09T02:59:17.897Z,1021.16
2022-10-09T03:00:17.900Z,1021.18
2022-10-09T03:01:17.939Z,1021.17
2022-10-09T03:02:18.031Z,1021.15
2022-10-09T03:03:17.885Z,1021.19
2022-10-09T03:04:17.885Z,1021.20
2022-10-09T03:05:17.943Z,1021.25
2022-10-09T03:06:17.871Z,1021.21
2022-10-09T03:07:17.874Z,1021.17
2022-10-09T03:08:17.872Z,1021.15
2022-10-09T03:09:17.868Z,1021.20
2022-10-09T03:10:17.860Z,1021.21
2022-10-09T03:11:17.856Z,1021.18
2022-10-09T03:12:17.862Z,1021.18
2022-10-09T03:13:17.853Z,1021.20
2022-10-09T03:14:17.853Z,1021.18
2022-10-09T03:15:17.881Z,1021.17
2022-10-09T03:16:17.922Z,1021.20
2022-10-09T03:17:17.841Z,1021.17
2022-10-09T03:18:17.887Z,1021.18
2022-10-09T03:19:17.840Z,1021.15
2022-10-09T03:20:17.854Z,1021.13
2022-10-09T03:21:18.000Z,1021.09
2022-10-09T03:22:17.834Z,1021.11
2022-10-09T03:23:17.849Z,1021.10
2022-10-09T03:24:17.847Z,1021.13
2022-10-09T03:25:17.840Z,1021.14
2022-10-09T03:26:17.827Z,1021.11
2022-10-09T03:27:17.820Z,1021.08
2022-10-09T03:28:17.853Z,1021.06
2022-10-09T03:29:17.806Z,1021.04
2022-10-09T03:30:17.809Z,1021.07
2022-10-09T03:31:33.453Z,1021.06
2022-10-09T03:32:17.859Z,1021.07
2022-10-09T03:33:17.798Z,1021.11
2022-10-09T03:34:17.800Z,1021.09
2022-10-09T03:35:17.809Z,1021.09
2022-10-09T03:36:17.803Z,1021.04
2022-10-09T03:37:17.816Z,1020.99
2022-10-09T03:38:17.782Z,1021.01
2022-10-09T03:39:17.789Z,1021.07
2022-10-09T03:40:17.782Z,1021.11
2022-10-09T03:41:17.800Z,1021.06
2022-10-09T03:42:17.769Z,1021.06
2022-10-09T03:43:17.770Z,1021.09
2022-10-09T03:44:17.774Z,1021.03
2022-10-09T03:45:17.779Z,1021.03
2022-10-09T03:46:17.830Z,1021.01
2022-10-09T03:47:17.791Z,1020.99
2022-10-09T03:48:17.758Z,1021.00
2022-10-09T03:49:17.756Z,1021.02
2022-10-09T03:50:17.742Z,1021.00
2022-10-09T03:51:17.755Z,1020.99
2022-10-09T03:52:17.738Z,1020.99
2022-10-09T03:53:17.903Z,1021.00
2022-10-09T03:54:17.754Z,1020.95
2022-10-09T03:55:17.739Z,1020.99
2022-10-09T03:56:17.755Z,1020.96
2022-10-09T03:57:17.757Z,1020.97
2022-10-09T03:58:17.721Z,1020.95
2022-10-09T03:59:17.723Z,1020.93
2022-10-09T04:00:17.729Z,1020.95
2022-10-09T04:01:17.791Z,1020.93
2022-10-09T04:02:17.786Z,1020.92
2022-10-09T04:03:17.713Z,1020.91
2022-10-09T04:04:17.724Z,1020.91
2022-10-09T04:05:17.721Z,1020.96
2022-10-09T04:06:17.723Z,1020.92
2022-10-09T04:07:17.730Z,1020.89
2022-10-09T04:08:17.702Z,1020.92
2022-10-09T04:09:17.716Z,1020.91
2022-10-09T04:10:17.687Z,1020.92
2022-10-09T04:11:17.687Z,1020.92
2022-10-09T04:12:17.695Z,1020.89
2022-10-09T04:13:17.703Z,1020.87
2022-10-09T04:14:17.679Z,1020.87
2022-10-09T04:15:17.684Z,1020.84
2022-10-09T04:16:17.707Z,1020.89
2022-10-09T04:17:17.692Z,1020.88
2022-10-09T04:18:17.685Z,1020.88
2022-10-09T04:19:17.665Z,1020.86
2022-10-09T04:20:17.664Z,1020.90
2022-10-09T04:21:17.663Z,1020.87
2022-10-09T04:22:17.660Z,1020.87
2022-10-09T04:23:17.662Z,1020.89
2022-10-09T04:24:17.643Z,1020.94
2022-10-09T04:25:17.670Z,1021.00
2022-10-09T04:26:17.654Z,1020.94
2022-10-09T04:27:17.655Z,1020.89
2022-10-09T04:28:17.679Z,1020.92
2022-10-09T04:29:17.635Z,1020.90
2022-10-09T04:30:17.632Z,1020.85
2022-10-09T04:31:17.673Z,1020.88
2022-10-09T04:32:17.634Z,1020.88
2022-10-09T04:33:17.639Z,1020.91
2022-10-09T04:34:17.628Z,1020.89
2022-10-09T04:35:17.614Z,1020.86
2022-10-09T04:36:17.621Z,1020.84
2022-10-09T04:37:17.618Z,1020.80
2022-10-09T04:38:17.613Z,1020.79
2022-10-09T04:39:17.614Z,1020.81
2022-10-09T04:40:17.599Z,1020.83
2022-10-09T04:41:17.763Z,1020.83
2022-10-09T04:42:17.596Z,1020.81
2022-10-09T04:43:17.609Z,1020.79
2022-10-09T04:44:17.598Z,1020.82
2022-10-09T04:45:17.628Z,1020.75
2022-10-09T04:46:17.685Z,1020.77
2022-10-09T04:47:17.596Z,1020.75
2022-10-09T04:48:17.576Z,1020.78
2022-10-09T04:49:17.605Z,1020.71
2022-10-09T04:50:17.569Z,1020.72
2022-10-09T04:51:17.575Z,1020.70
2022-10-09T04:52:17.569Z,1020.69
2022-10-09T04:53:17.581Z,1020.72
2022-10-09T04:54:17.570Z,1020.73
2022-10-09T04:55:17.564Z,1020.72
2022-10-09T04:56:17.558Z,1020.70
2022-10-09T04:57:17.578Z,1020.67
2022-10-09T04:58:17.560Z,1020.72
2022-10-09T04:59:17.566Z,1020.69
2022-10-09T05:00:17.545Z,1020.70
2022-10-09T05:01:17.563Z,1020.69
2022-10-09T05:02:17.607Z,1020.72
2022-10-09T05:03:17.536Z,1020.67
2022-10-09T05:04:17.544Z,1020.66
2022-10-09T05:05:17.534Z,1020.66
2022-10-09T05:06:17.526Z,1020.67
2022-10-09T05:07:17.519Z,1020.67
2022-10-09T05:08:17.523Z,1020.62
2022-10-09T05:09:17.526Z,1020.65
2022-10-09T05:10:17.530Z,1020.67
2022-10-09T05:11:17.511Z,1020.69
2022-10-09T05:12:17.511Z,1020.68
2022-10-09T05:13:17.533Z,1020.72
2022-10-09T05:14:17.509Z,1020.68
2022-10-09T05:15:17.505Z,1020.67
2022-10-09T05:16:17.573Z,1020.66
2022-10-09T05:17:22.072Z,1020.61
2022-10-09T05:18:17.492Z,1020.61
2022-10-09T05:19:17.498Z,1020.59
2022-10-09T05:20:17.493Z,1020.60
2022-10-09T05:21:17.478Z,1020.58
2022-10-09T05:22:17.477Z,1020.59
2022-10-09T05:23:17.468Z,1020.56
2022-10-09T05:24:17.483Z,1020.58
2022-10-09T05:25:17.476Z,1020.59
2022-10-09T05:26:17.465Z,1020.61
2022-10-09T05:27:17.463Z,1020.60
2022-10-09T05:28:17.515Z,1020.65
2022-10-09T05:29:17.476Z,1020.64
2022-10-09T05:30:17.464Z,1020.62
2022-10-09T05:31:17.473Z,1020.64
2022-10-09T05:32:17.442Z,1020.62
2022-10-09T05:33:17.443Z,1020.63
2022-10-09T05:34:17.448Z,1020.59
2022-10-09T05:35:17.443Z,1020.61
2022-10-09T05:36:17.437Z,1020.63
2022-10-09T05:37:17.437Z,1020.67
2022-10-09T05:38:17.429Z,1020.69
2022-10-09T05:39:17.428Z,1020.68
2022-10-09T05:40:17.443Z,1020.65
2022-10-09T05:41:17.422Z,1020.65
2022-10-09T05:42:17.411Z,1020.64
2022-10-09T05:43:17.411Z,1020.63
2022-10-09T05:44:17.408Z,1020.67
2022-10-09T05:45:17.452Z,1020.65
2022-10-09T05:46:17.470Z,1020.64
2022-10-09T05:47:17.395Z,1020.64
2022-10-09T05:48:17.399Z,1020.67
2022-10-09T05:49:17.406Z,1020.69
2022-10-09T05:50:17.390Z,1020.68
2022-10-09T05:51:17.393Z,1020.67
2022-10-09T05:52:17.387Z,1020.69
2022-10-09T05:53:17.405Z,1020.60
2022-10-09T05:54:17.382Z,1020.66
2022-10-09T05:55:17.373Z,1020.69
2022-10-09T05:56:17.394Z,1020.69
2022-10-09T05:57:17.366Z,1020.70
2022-10-09T05:59:11.730Z,1020.69
2022-10-09T06:00:11.708Z,1020.73
2022-10-09T06:01:11.791Z,1020.70
2022-10-09T06:02:11.739Z,1020.68
2022-10-09T06:03:11.707Z,1020.69
2022-10-09T06:04:11.702Z,1020.65
2022-10-09T06:05:11.689Z,1020.63
2022-10-09T06:06:11.706Z,1020.64
2022-10-09T06:07:11.696Z,1020.65
2022-10-09T06:08:11.690Z,1020.64
2022-10-09T06:09:11.698Z,1020.64
2022-10-09T06:10:11.671Z,1020.61
2022-10-09T06:11:11.684Z,1020.61
2022-10-09T06:12:11.666Z,1020.63
2022-10-09T06:13:11.667Z,1020.65
2022-10-09T06:14:11.672Z,1020.66
2022-10-09T06:15:11.659Z,1020.63
2022-10-09T06:16:11.818Z,1020.61
2022-10-09T06:17:11.686Z,1020.62
2022-10-09T06:18:11.669Z,1020.60
2022-10-09T06:19:11.655Z,1020.61
2022-10-09T06:20:11.645Z,1020.58
2022-10-09T06:21:11.651Z,1020.55
2022-10-09T06:22:11.642Z,1020.56
2022-10-09T06:23:11.645Z,1020.58
2022-10-09T06:24:11.651Z,1020.54
2022-10-09T06:25:11.639Z,1020.59
2022-10-09T06:26:11.625Z,1020.58
2022-10-09T06:27:11.625Z,1020.61
2022-10-09T06:28:11.663Z,1020.63
2022-10-09T06:29:11.617Z,1020.62
2022-10-09T06:30:11.612Z,1020.65
2022-10-09T06:31:11.689Z,1020.65
2022-10-09T06:32:11.608Z,1020.65
2022-10-09T06:33:11.626Z,1020.66
2022-10-09T06:34:11.610Z,1020.67
2022-10-09T06:35:11.609Z,1020.63
2022-10-09T06:36:11.591Z,1020.66
2022-10-09T06:37:11.593Z,1020.67
2022-10-09T06:38:11.591Z,1020.63
2022-10-09T06:39:11.593Z,1020.66
2022-10-09T06:40:11.587Z,1020.66
2022-10-09T06:41:11.588Z,1020.70
2022-10-09T06:42:11.582Z,1020.68
2022-10-09T06:43:11.578Z,1020.67
2022-10-09T06:44:15.473Z,1020.73
2022-10-09T06:45:11.584Z,1020.74
2022-10-09T06:46:11.659Z,1020.72
2022-10-09T06:47:11.561Z,1020.69
2022-10-09T06:48:11.569Z,1020.69
2022-10-09T06:49:11.585Z,1020.71
2022-10-09T06:50:11.560Z,1020.72
2022-10-09T06:51:11.557Z,1020.73
2022-10-09T06:52:11.551Z,1020.73
2022-10-09T06:53:11.539Z,1020.74
2022-10-09T06:54:11.553Z,1020.76
2022-10-09T06:55:11.558Z,1020.78
2022-10-09T06:56:11.534Z,1020.78
2022-10-09T06:57:11.535Z,1020.79
2022-10-09T06:58:11.529Z,1020.76
2022-10-09T06:59:11.541Z,1020.77
2022-10-09T07:00:11.527Z,1020.78
2022-10-09T07:01:11.640Z,1020.79
2022-10-09T07:02:11.569Z,1020.78
2022-10-09T07:03:11.615Z,1020.76
2022-10-09T07:04:11.525Z,1020.77
2022-10-09T07:05:11.535Z,1020.78
2022-10-09T07:06:11.501Z,1020.79
2022-10-09T07:07:11.505Z,1020.75
2022-10-09T07:08:11.506Z,1020.71
2022-10-09T07:09:11.499Z,1020.74
2022-10-09T07:10:11.497Z,1020.77
2022-10-09T07:11:11.491Z,1020.81
2022-10-09T07:12:11.491Z,1020.78
2022-10-09T07:13:11.493Z,1020.77
2022-10-09T07:14:11.488Z,1020.81
2022-10-09T07:15:11.489Z,1020.78
2022-10-09T07:16:11.609Z,1020.78
2022-10-09T07:17:11.467Z,1020.81
2022-10-09T07:18:11.472Z,1020.76
2022-10-09T07:19:11.637Z,1020.74
2022-10-09T07:20:11.462Z,1020.77
2022-10-09T07:21:11.488Z,1020.77
2022-10-09T07:22:11.478Z,1020.76
2022-10-09T07:23:11.452Z,1020.75
2022-10-09T07:24:11.460Z,1020.75
2022-10-09T07:25:11.453Z,1020.76
2022-10-09T07:26:11.460Z,1020.73
2022-10-09T07:27:11.439Z,1020.77
2022-10-09T07:28:11.522Z,1020.74
2022-10-09T07:29:11.435Z,1020.77
2022-10-09T07:30:11.431Z,1020.81
2022-10-09T07:31:11.513Z,1020.77
2022-10-09T07:32:11.438Z,1020.79
2022-10-09T07:33:11.426Z,1020.74
2022-10-09T07:34:11.417Z,1020.76
2022-10-09T07:35:11.422Z,1020.76
2022-10-09T07:36:11.414Z,1020.73
2022-10-09T07:37:11.563Z,1020.70
2022-10-09T07:38:11.408Z,1020.73
2022-10-09T07:39:11.405Z,1020.74
2022-10-09T07:40:11.398Z,1020.75
2022-10-09T07:41:11.422Z,1020.78
2022-10-09T07:42:11.399Z,1020.74
2022-10-09T07:43:11.408Z,1020.69
2022-10-09T07:44:11.399Z,1020.66
2022-10-09T07:45:11.383Z,1020.68
2022-10-09T07:46:11.459Z,1020.65
2022-10-09T07:47:11.373Z,1020.64
2022-10-09T07:48:11.385Z,1020.64
2022-10-09T07:49:11.370Z,1020.66
2022-10-09T07:50:11.364Z,1020.66
2022-10-09T07:51:11.379Z,1020.66
2022-10-09T07:52:11.370Z,1020.64
2022-10-09T07:53:11.387Z,1020.66
2022-10-09T07:54:11.362Z,1020.65
2022-10-09T07:55:11.357Z,1020.63
2022-10-09T07:56:11.362Z,1020.67
2022-10-09T07:57:11.345Z,1020.69
2022-10-09T07:58:11.346Z,1020.66
2022-10-09T07:59:11.353Z,1020.65
2022-10-09T08:00:11.342Z,1020.64
2022-10-09T08:01:15.023Z,1020.58
2022-10-09T08:02:11.383Z,1020.66
2022-10-09T08:03:11.346Z,1020.64
2022-10-09T08:04:11.358Z,1020.62
2022-10-09T08:05:11.325Z,1020.64
2022-10-09T08:06:11.327Z,1020.69
2022-10-09T08:07:11.510Z,1020.66
2022-10-09T08:08:11.313Z,1020.66
2022-10-09T08:09:11.390Z,1020.69
2022-10-09T08:10:11.308Z,1020.63
2022-10-09T08:11:11.326Z,1020.63
2022-10-09T08:12:11.329Z,1020.66
2022-10-09T08:13:11.303Z,1020.64
2022-10-09T08:14:14.206Z,1020.59
2022-10-09T08:15:11.302Z,1020.62
2022-10-09T08:16:11.357Z,1020.64
2022-10-09T08:17:11.295Z,1020.64
2022-10-09T08:18:11.298Z,1020.59
2022-10-09T08:19:11.294Z,1020.57
2022-10-09T08:20:11.279Z,1020.52
2022-10-09T08:21:11.293Z,1020.49
2022-10-09T08:22:11.288Z,1020.49
2022-10-09T08:23:11.283Z,1020.48
2022-10-09T08:24:11.267Z,1020.52
2022-10-09T08:25:11.296Z,1020.49
2022-10-09T08:26:11.280Z,1020.46
2022-10-09T08:27:11.286Z,1020.45
2022-10-09T08:28:11.307Z,1020.46
2022-10-09T08:29:11.266Z,1020.42
2022-10-09T08:30:11.265Z,1020.41
2022-10-09T08:31:11.289Z,1020.46
2022-10-09T08:32:11.296Z,1020.43
2022-10-09T08:33:11.250Z,1020.43
2022-10-09T08:34:11.258Z,1020.45
2022-10-09T08:35:11.247Z,1020.47
2022-10-09T08:36:11.247Z,1020.47
2022-10-09T08:37:11.245Z,1020.42
2022-10-09T08:38:25.317Z,1020.42
2022-10-09T08:39:11.238Z,1020.46
2022-10-09T08:40:11.239Z,1020.42
2022-10-09T08:41:11.254Z,1020.42
2022-10-09T08:42:11.229Z,1020.40
2022-10-09T08:43:11.253Z,1020.38
2022-10-09T08:44:11.249Z,1020.34
2022-10-09T08:45:11.252Z,1020.32
2022-10-09T08:46:11.286Z,1020.34
2022-10-09T08:47:11.232Z,1020.33
2022-10-09T08:48:11.224Z,1020.30
2022-10-09T08:49:11.224Z,1020.27
2022-10-09T08:50:11.239Z,1020.26
2022-10-09T08:51:11.232Z,1020.27
2022-10-09T08:52:11.224Z,1020.26
2022-10-09T08:53:11.223Z,1020.27
2022-10-09T08:54:11.225Z,1020.23
2022-10-09T08:55:11.211Z,1020.20
2022-10-09T08:56:11.210Z,1020.22
2022-10-09T08:57:11.226Z,1020.19
2022-10-09T08:58:11.212Z,1020.17
2022-10-09T08:59:11.206Z,1020.17
2022-10-09T09:00:11.205Z,1020.23
2022-10-09T09:01:11.203Z,1020.18
2022-10-09T09:02:11.204Z,1020.17
2022-10-09T09:03:11.253Z,1020.16
2022-10-09T09:04:11.210Z,1020.16
2022-10-09T09:05:11.203Z,1020.13
2022-10-09T09:06:11.196Z,1020.16
2022-10-09T09:07:11.196Z,1020.08
2022-10-09T09:08:11.187Z,1020.12
2022-10-09T09:09:11.185Z,1020.08
2022-10-09T09:10:11.186Z,1020.06
2022-10-09T09:11:11.191Z,1020.08
2022-10-09T09:12:11.183Z,1020.06
2022-10-09T09:13:11.211Z,1020.04
2022-10-09T09:14:11.227Z,1020.09
2022-10-09T09:15:11.182Z,1020.06
2022-10-09T09:16:11.200Z,1020.03
2022-10-09T09:17:11.191Z,1020.06
2022-10-09T09:18:11.177Z,1020.02
2022-10-09T09:19:11.172Z,1020.06
2022-10-09T09:20:11.172Z,1020.01
2022-10-09T09:21:11.178Z,1020.01
2022-10-09T09:22:11.167Z,1020.03
2022-10-09T09:23:11.167Z,1020.04
2022-10-09T09:24:11.190Z,1020.00
2022-10-09T09:25:11.175Z,1019.99
2022-10-09T09:26:11.166Z,1019.99
2022-10-09T09:27:11.163Z,1019.95
2022-10-09T09:28:12.473Z,1019.93
2022-10-09T09:35:03.189Z,1019.87
2022-10-09T09:36:02.879Z,1019.93
2022-10-09T09:37:02.879Z,1019.91
2022-10-09T09:38:02.869Z,1019.89
2022-10-09T09:39:49.952Z,1019.89
2022-10-09T09:41:02.880Z,1019.90
2022-10-09T09:42:02.887Z,1019.89
2022-10-09T09:43:04.948Z,1019.85
2022-10-09T09:44:02.900Z,1019.85
2022-10-09T09:45:02.868Z,1019.88
2022-10-09T09:46:02.869Z,1019.82
2022-10-09T09:47:02.885Z,1019.77
2022-10-09T09:48:02.856Z,1019.78
2022-10-09T09:49:07.051Z,1019.76
2022-10-09T09:50:02.880Z,1019.71
2022-10-09T09:51:26.864Z,1019.68
2022-10-09T09:52:02.846Z,1019.68
2022-10-09T09:53:02.854Z,1019.65
2022-10-09T09:54:02.868Z,1019.60
2022-10-09T09:55:02.850Z,1019.62
2022-10-09T09:56:02.848Z,1019.59
2022-10-09T09:57:21.822Z,1019.58
2022-10-09T09:58:02.837Z,1019.56
2022-10-09T09:59:02.890Z,1019.52
2022-10-09T10:00:02.839Z,1019.50
2022-10-09T10:01:02.884Z,1019.50
2022-10-09T10:02:02.909Z,1019.49
2022-10-09T10:03:02.838Z,1019.44
2022-10-09T10:04:02.836Z,1019.43
2022-10-09T10:05:02.831Z,1019.45
2022-10-09T10:06:02.830Z,1019.40
2022-10-09T10:07:02.854Z,1019.40
2022-10-09T10:08:02.835Z,1019.36
2022-10-09T10:09:02.832Z,1019.38
2022-10-09T10:10:02.848Z,1019.37
2022-10-09T10:11:02.814Z,1019.36
2022-10-09T10:12:02.835Z,1019.31
2022-10-09T10:13:02.818Z,1019.28
2022-10-09T10:14:02.821Z,1019.29
2022-10-09T10:15:02.811Z,1019.32
2022-10-09T10:16:02.893Z,1019.27
2022-10-09T10:17:02.810Z,1019.30
2022-10-09T10:18:02.802Z,1019.25
2022-10-09T10:19:02.810Z,1019.24
2022-10-09T10:20:02.817Z,1019.24
2022-10-09T10:21:02.809Z,1019.23
2022-10-09T10:22:02.807Z,1019.22
2022-10-09T10:23:02.816Z,1019.20
2022-10-09T10:24:02.805Z,1019.16
2022-10-09T10:25:02.791Z,1019.15
2022-10-09T10:26:02.793Z,1019.17
2022-10-09T10:27:02.793Z,1019.12
2022-10-09T10:28:02.841Z,1019.13
2022-10-09T10:29:02.784Z,1019.11
2022-10-09T10:30:02.786Z,1019.10
2022-10-09T10:31:02.850Z,1019.09
2022-10-09T10:32:02.792Z,1019.08
2022-10-09T10:33:02.848Z,1019.07
2022-10-09T10:34:02.788Z,1019.05
2022-10-09T10:35:02.786Z,1019.03
2022-10-09T10:36:02.779Z,1019.02
2022-10-09T10:37:03.472Z,1018.99
2022-10-09T10:38:02.769Z,1018.98
2022-10-09T10:39:02.789Z,1018.99
2022-10-09T10:40:02.774Z,1018.96
2022-10-09T10:41:02.763Z,1018.93
2022-10-09T10:42:02.759Z,1018.92
2022-10-09T10:43:02.765Z,1018.85
2022-10-09T10:44:02.764Z,1018.87
2022-10-09T10:45:02.767Z,1018.89
2022-10-09T10:46:02.749Z,1018.86
2022-10-09T10:47:02.747Z,1018.83
2022-10-09T10:48:02.760Z,1018.83
2022-10-09T10:49:02.753Z,1018.80
2022-10-09T10:50:02.758Z,1018.82
2022-10-09T10:51:02.739Z,1018.75
2022-10-09T10:52:02.744Z,1018.77
2022-10-09T10:53:02.742Z,1018.77
2022-10-09T10:54:02.748Z,1018.73
2022-10-09T10:55:02.897Z,1018.73
2022-10-09T10:56:05.238Z,1018.71
2022-10-09T10:57:02.734Z,1018.70
2022-10-09T10:58:02.726Z,1018.67
2022-10-09T10:59:02.731Z,1018.68
2022-10-09T11:00:02.721Z,1018.68
2022-10-09T11:01:02.778Z,1018.64
2022-10-09T11:02:02.722Z,1018.65
2022-10-09T11:03:02.812Z,1018.60
2022-10-09T11:04:02.717Z,1018.59
2022-10-09T11:05:02.746Z,1018.60
2022-10-09T11:06:02.748Z,1018.55
2022-10-09T11:07:02.724Z,1018.57
2022-10-09T11:08:02.710Z,1018.50
2022-10-09T11:09:02.754Z,1018.50
2022-10-09T11:10:05.399Z,1018.48
2022-10-09T11:11:02.702Z,1018.42
2022-10-09T11:12:02.711Z,1018.43
2022-10-09T11:13:03.040Z,1018.46
2022-10-09T11:14:02.698Z,1018.43
2022-10-09T11:15:02.713Z,1018.40
2022-10-09T11:16:02.752Z,1018.42
2022-10-09T11:17:02.690Z,1018.37
2022-10-09T11:18:02.684Z,1018.40
2022-10-09T11:19:02.704Z,1018.35
2022-10-09T11:20:02.709Z,1018.37
2022-10-09T11:21:02.734Z,1018.32
2022-10-09T11:22:02.687Z,1018.26
2022-10-09T11:23:02.687Z,1018.21
2022-10-09T11:24:02.698Z,1018.23
2022-10-09T11:25:02.680Z,1018.27
2022-10-09T11:26:02.689Z,1018.22
2022-10-09T11:27:03.774Z,1018.18
2022-10-09T11:28:02.780Z,1018.14
2022-10-09T11:29:02.675Z,1018.10
2022-10-09T11:30:02.677Z,1018.07
2022-10-09T11:31:02.682Z,1018.09
2022-10-09T11:32:02.772Z,1018.10
2022-10-09T11:33:02.672Z,1018.06
2022-10-09T11:34:02.663Z,1018.09
2022-10-09T11:35:02.667Z,1018.02
2022-10-09T11:36:02.685Z,1017.99
2022-10-09T11:37:02.652Z,1017.96
2022-10-09T11:38:02.662Z,1018.00
2022-10-09T11:39:02.657Z,1017.95
2022-10-09T11:40:02.655Z,1017.91
2022-10-09T11:41:07.096Z,1017.86
2022-10-09T11:42:02.669Z,1017.86
2022-10-09T11:43:02.654Z,1017.87
2022-10-09T11:44:02.643Z,1017.85
2022-10-09T11:45:02.641Z,1017.85
2022-10-09T11:46:02.712Z,1017.83
2022-10-09T11:47:03.981Z,1017.80
2022-10-09T11:48:02.632Z,1017.77
2022-10-09T11:49:02.630Z,1017.76
2022-10-09T11:50:02.631Z,1017.76
2022-10-09T11:51:02.628Z,1017.75
2022-10-09T11:52:02.625Z,1017.71
2022-10-09T11:53:02.623Z,1017.72
2022-10-09T11:54:02.619Z,1017.69
2022-10-09T11:55:02.630Z,1017.64
2022-10-09T11:56:02.625Z,1017.62
2022-10-09T11:57:05.846Z,1017.61
2022-10-09T11:58:02.650Z,1017.63
2022-10-09T11:59:02.619Z,1017.60
2022-10-09T12:00:02.618Z,1017.54
2022-10-09T12:01:02.686Z,1017.57
2022-10-09T12:02:02.657Z,1017.52
2022-10-09T12:03:02.609Z,1017.51
2022-10-09T12:04:02.637Z,1017.47
2022-10-09T12:05:02.603Z,1017.45
2022-10-09T12:06:02.606Z,1017.42
2022-10-09T12:07:02.603Z,1017.44
2022-10-09T12:08:02.602Z,1017.47
2022-10-09T12:09:02.609Z,1017.51
2022-10-09T12:10:02.602Z,1017.46
2022-10-09T12:11:02.597Z,1017.37
2022-10-09T12:12:02.600Z,1017.35
2022-10-09T12:13:02.586Z,1017.35